Darstellungsparameter: Aktuell verwendete Einstellungen:
Skalierung der Graphiken ... ?
xyx+y,   Skalierungsfaktor:      Skalierung: Modus: x, Faktor: 1
Darstellungszeitraum ... ?
Vom - - bis: - -   Zeitraum: 05.09.2011 - 11.09.2011
Min/Max/Avg-Anzeige ... ?
Zeige MMA aktuell
Zeige MMA Monat
Zeige MMA alles
Zeige --A aktuell
Zeige --A Monat
Zeige --A alles
Keine MMA-Anzeige
MMA:
Keine MMA-Graphiken
MMA-Basis: 05.09.2011 - 11.09.2011
Quicknavigation für Darstellung... ?
Tage:      1T, 2T, 3T, 5T -1T -2T -3T -5T +1T +2T +3T +5T
Wochen: 1W, 2W, 3W -1W -2W -3W +1W +2W +3W
Monate: 1M, 3M, 6M -1M -3M -6M +1M +3M +6M
Jahre:    1J, 3J, 5J, 10J -1J -3J -5J -10J +1J +3J +5J +10J
Nutze für die Darstellung ... ?
Originaldaten oder Mittelwerte auf ...
Stundenbasis Tagesbasis Wochenbasis
Monatsbasis Jahresbasis      Datenbasis: Original-Daten
Darstellen als:
Statistik (Auto) Statistik J:M      Darstellung:
Zur Graphik,    zurück zur Übersicht aller Sensoren.
 
Tabellarische Datenbersicht: ?
 
Sensor: Nr:Datum:Temp:Feuchte:Taupunkt:
Aussen-T/F 1 05-09-2011 00:01:03 17.9 C 79 % 14.21 C
2 05-09-2011 00:13:03 17.8 C 79 % 14.11 C
3 05-09-2011 00:25:03 17.4 C 80 % 13.92 C
4 05-09-2011 00:37:03 17.3 C 81 % 14.01 C
5 05-09-2011 00:49:03 17.2 C 82 % 14.1 C
6 05-09-2011 01:01:03 17.4 C 82 % 14.3 C
7 05-09-2011 01:13:03 18 C 78 % 14.11 C
8 05-09-2011 01:25:03 17.3 C 78 % 13.43 C
9 05-09-2011 01:37:03 16.9 C 81 % 13.62 C
10 05-09-2011 01:49:03 16.9 C 82 % 13.81 C
11 05-09-2011 02:01:03 17 C 82 % 13.91 C
12 05-09-2011 02:13:03 17.3 C 82 % 14.2 C
13 05-09-2011 02:25:03 17.4 C 81 % 14.11 C
14 05-09-2011 02:37:03 17.5 C 80 % 14.01 C
15 05-09-2011 02:49:03 17.4 C 79 % 13.72 C
16 05-09-2011 03:01:04 17.1 C 80 % 13.62 C
17 05-09-2011 03:13:04 17 C 81 % 13.72 C
18 05-09-2011 03:25:04 16.7 C 82 % 13.61 C
19 05-09-2011 03:37:04 16.2 C 82 % 13.13 C
20 05-09-2011 03:49:04 16 C 83 % 13.12 C
21 05-09-2011 04:01:04 16 C 84 % 13.3 C
22 05-09-2011 04:13:04 16.5 C 85 % 13.97 C
23 05-09-2011 04:25:04 16.6 C 85 % 14.07 C
24 05-09-2011 04:37:04 16.9 C 85 % 14.36 C
25 05-09-2011 04:49:04 17.4 C 82 % 14.3 C
Sensor: Nr:Datum:Temp:Feuchte:Taupunkt:
Aussen-T/F 26 05-09-2011 05:01:04 17.7 C 79 % 14.01 C
27 05-09-2011 05:13:04 17.9 C 72 % 12.78 C
28 05-09-2011 05:25:04 17.8 C 68 % 11.82 C
29 05-09-2011 05:37:04 17.7 C 64 % 10.81 C
30 05-09-2011 05:49:04 17.5 C 62 % 10.15 C
31 05-09-2011 06:01:04 17.5 C 54 % 8.1 C
32 05-09-2011 06:13:04 17.2 C 48 % 6.11 C
33 05-09-2011 06:25:04 16.6 C 46 % 4.95 C
34 05-09-2011 06:37:04 16.4 C 43 % 3.8 C
35 05-09-2011 06:49:04 16 C 44 % 3.77 C
36 05-09-2011 07:01:04 15.4 C 47 % 4.16 C
37 05-09-2011 07:13:04 14.8 C 51 % 4.77 C
38 05-09-2011 07:25:03 14.4 C 55 % 5.49 C
39 05-09-2011 07:37:03 14.3 C 56 % 5.65 C
40 05-09-2011 07:49:02 14.2 C 56 % 5.56 C
41 05-09-2011 08:01:03 13.8 C 60 % 6.18 C
42 05-09-2011 08:13:03 13.7 C 61 % 6.32 C
43 05-09-2011 08:25:02 14 C 60 % 6.37 C
44 05-09-2011 08:37:02 14 C 62 % 6.84 C
45 05-09-2011 08:49:01 14.3 C 60 % 6.65 C
46 05-09-2011 09:01:02 14.1 C 62 % 6.94 C
47 05-09-2011 09:13:02 14.2 C 63 % 7.27 C
48 05-09-2011 09:25:01 14.8 C 60 % 7.12 C
49 05-09-2011 09:37:01 14.8 C 63 % 7.83 C
50 05-09-2011 09:49:01 15.4 C 59 % 7.44 C
Sensor: Nr:Datum:Temp:Feuchte:Taupunkt:
Aussen-T/F 51 05-09-2011 10:01:01 16 C 55 % 6.97 C
52 05-09-2011 10:13:01 16.2 C 55 % 7.16 C
53 05-09-2011 10:25:02 16.6 C 53 % 6.99 C
54 05-09-2011 10:37:01 17.1 C 51 % 6.89 C
55 05-09-2011 10:49:03 17.6 C 47 % 6.17 C
56 05-09-2011 11:01:02 17.5 C 48 % 6.38 C
57 05-09-2011 11:13:02 17.7 C 46 % 5.95 C
58 05-09-2011 11:25:02 18.2 C 45 % 6.08 C
59 05-09-2011 11:37:02 18.5 C 45 % 6.36 C
60 05-09-2011 11:49:02 18.5 C 45 % 6.36 C
61 05-09-2011 12:01:01 19.3 C 43 % 6.42 C
62 05-09-2011 12:13:01 19.3 C 44 % 6.75 C
63 05-09-2011 12:25:02 19.1 C 43 % 6.24 C
64 05-09-2011 12:37:02 19.1 C 43 % 6.24 C
65 05-09-2011 12:49:02 19.7 C 43 % 6.78 C
66 05-09-2011 13:01:02 20 C 41 % 6.36 C
67 05-09-2011 13:13:02 19.3 C 42 % 6.08 C
68 05-09-2011 13:25:02 20.3 C 40 % 6.27 C
69 05-09-2011 13:37:02 19.6 C 40 % 5.64 C
70 05-09-2011 13:49:01 21.2 C 36 % 5.55 C
71 05-09-2011 14:01:02 20.4 C 40 % 6.36 C
72 05-09-2011 14:13:03 20.2 C 36 % 4.67 C
73 05-09-2011 14:25:01 21.2 C 33 % 4.3 C
74 05-09-2011 14:37:01 22 C 30 % 3.64 C
75 05-09-2011 14:49:01 21.9 C 32 % 4.48 C
Sensor: Nr:Datum:Temp:Feuchte:Taupunkt:
Aussen-T/F 76 05-09-2011 15:01:01 20.4 C 36 % 4.84 C
77 05-09-2011 15:13:01 20.3 C 41 % 6.63 C
78 05-09-2011 15:25:02 19.3 C 42 % 6.08 C
79 05-09-2011 15:37:01 19.2 C 36 % 3.78 C
80 05-09-2011 15:49:03 19.8 C 37 % 4.7 C
81 05-09-2011 16:01:02 22.4 C 30 % 3.99 C
82 05-09-2011 16:13:02 20.9 C 33 % 4.04 C
83 05-09-2011 16:25:02 22.7 C 28 % 3.27 C
84 05-09-2011 16:37:02 22.8 C 26 % 2.31 C
85 05-09-2011 16:49:02 22.9 C 25 % 1.85 C
86 05-09-2011 17:01:02 23.2 C 25 % 2.1 C
87 05-09-2011 17:13:02 22.7 C 25 % 1.68 C
88 05-09-2011 17:25:02 22.4 C 25 % 1.43 C
89 05-09-2011 17:37:02 23.9 C 25 % 2.69 C
90 05-09-2011 17:49:02 23.3 C 23 % 1.03 C
91 05-09-2011 18:01:02 22.7 C 25 % 1.68 C
92 05-09-2011 18:13:02 22.6 C 26 % 2.14 C
93 05-09-2011 18:25:01 22.4 C 25 % 1.43 C
94 05-09-2011 18:37:02 21.9 C 26 % 1.55 C
95 05-09-2011 18:49:02 19.7 C 31 % 2.12 C
96 05-09-2011 19:01:02 20.9 C 28 % 1.73 C
97 05-09-2011 19:13:02 19.8 C 30 % 1.74 C
98 05-09-2011 19:25:01 19.3 C 32 % 2.21 C
99 05-09-2011 19:37:02 18.9 C 35 % 3.12 C
100 05-09-2011 19:49:02 17.9 C 39 % 3.76 C
Sensor: Nr:Datum:Temp:Feuchte:Taupunkt:
Aussen-T/F 101 05-09-2011 20:01:02 17.7 C 39 % 3.59 C
102 05-09-2011 20:13:02 16.8 C 43 % 4.16 C
103 05-09-2011 20:25:01 17.1 C 41 % 3.76 C
104 05-09-2011 20:37:02 17.5 C 41 % 4.12 C
105 05-09-2011 20:49:02 17 C 42 % 4.01 C
106 05-09-2011 21:01:02 16.6 C 44 % 4.31 C
107 05-09-2011 21:13:02 16.8 C 42 % 3.83 C
108 05-09-2011 21:25:02 16.7 C 41 % 3.4 C
109 05-09-2011 21:37:03 16.4 C 42 % 3.47 C
110 05-09-2011 21:49:02 15.9 C 45 % 4 C
111 05-09-2011 22:01:02 15.1 C 48 % 4.18 C
112 05-09-2011 22:13:02 14.4 C 52 % 4.68 C
113 05-09-2011 22:26:01 14.1 C 55 % 5.21 C
114 05-09-2011 22:38:01 15 C 51 % 4.96 C
115 05-09-2011 22:50:01 14.6 C 53 % 5.14 C
116 05-09-2011 23:02:01 14.5 C 54 % 5.31 C
117 05-09-2011 23:14:01 14 C 56 % 5.37 C
118 05-09-2011 23:26:02 13.5 C 61 % 6.14 C
119 05-09-2011 23:38:02 13.7 C 62 % 6.56 C
120 05-09-2011 23:50:02 13.8 C 63 % 6.89 C
121 06-09-2011 00:02:02 12.9 C 66 % 6.71 C
122 06-09-2011 00:14:02 12.5 C 70 % 7.18 C
123 06-09-2011 00:26:02 12.5 C 71 % 7.39 C
124 06-09-2011 00:38:02 13 C 69 % 7.45 C
125 06-09-2011 00:50:02 12.7 C 70 % 7.38 C
Sensor: Nr:Datum:Temp:Feuchte:Taupunkt:
Aussen-T/F 126 06-09-2011 01:02:02 12.6 C 72 % 7.69 C
127 06-09-2011 01:14:02 12.1 C 72 % 7.21 C
128 06-09-2011 01:26:02 11.6 C 74 % 7.13 C
129 06-09-2011 01:38:02 11.3 C 76 % 7.23 C
130 06-09-2011 01:50:02 11.3 C 77 % 7.42 C
131 06-09-2011 02:02:02 11.1 C 78 % 7.41 C
132 06-09-2011 02:14:02 11.4 C 79 % 7.89 C
133 06-09-2011 02:26:02 11.7 C 77 % 7.81 C
134 06-09-2011 02:38:02 11.9 C 75 % 7.62 C
135 06-09-2011 02:50:02 12 C 74 % 7.52 C
136 06-09-2011 03:02:02 12 C 74 % 7.52 C
137 06-09-2011 03:14:02 11.5 C 76 % 7.42 C
138 06-09-2011 03:26:02 11.2 C 79 % 7.7 C
139 06-09-2011 03:38:02 11.2 C 80 % 7.88 C
140 06-09-2011 03:50:02 12 C 80 % 8.66 C
141 06-09-2011 04:02:03 12.2 C 77 % 8.29 C
142 06-09-2011 04:14:03 11.9 C 79 % 8.38 C
143 06-09-2011 04:26:03 11.6 C 79 % 8.09 C
144 06-09-2011 04:38:03 11.5 C 80 % 8.17 C
145 06-09-2011 04:50:03 11.3 C 80 % 7.98 C
146 06-09-2011 05:02:03 11.5 C 81 % 8.36 C
147 06-09-2011 05:14:03 11.6 C 80 % 8.27 C
148 06-09-2011 05:26:03 11.8 C 80 % 8.47 C
149 06-09-2011 05:38:03 11.7 C 79 % 8.18 C
150 06-09-2011 05:50:03 11.4 C 80 % 8.08 C
Sensor: Nr:Datum:Temp:Feuchte:Taupunkt:
Aussen-T/F 151 06-09-2011 06:02:03 11.4 C 81 % 8.26 C
152 06-09-2011 06:14:03 11.4 C 81 % 8.26 C
153 06-09-2011 06:26:03 11.4 C 81 % 8.26 C
154 06-09-2011 06:38:03 11.1 C 81 % 7.97 C
155 06-09-2011 06:50:03 11.1 C 82 % 8.15 C
156 06-09-2011 07:02:02 11 C 82 % 8.05 C
157 06-09-2011 07:14:02 10.9 C 82 % 7.95 C
158 06-09-2011 07:26:01 10.8 C 83 % 8.03 C
159 06-09-2011 07:38:02 10.8 C 83 % 8.03 C
160 06-09-2011 07:50:02 10.8 C 84 % 8.21 C
161 06-09-2011 08:02:02 10.8 C 84 % 8.21 C
162 06-09-2011 08:14:02 11.2 C 84 % 8.6 C
163 06-09-2011 08:26:02 11.3 C 84 % 8.7 C
164 06-09-2011 08:38:03 11.6 C 84 % 8.99 C
165 06-09-2011 08:50:02 11.9 C 84 % 9.29 C
166 06-09-2011 09:02:02 12.1 C 83 % 9.3 C
167 06-09-2011 09:14:02 12.7 C 79 % 9.16 C
168 06-09-2011 09:26:02 13.3 C 73 % 8.57 C
169 06-09-2011 09:38:02 14.7 C 67 % 8.64 C
170 06-09-2011 09:50:01 15.6 C 57 % 7.12 C
171 06-09-2011 10:02:02 16 C 54 % 6.71 C
172 06-09-2011 10:14:02 16.6 C 50 % 6.15 C
173 06-09-2011 10:26:01 16.6 C 50 % 6.15 C
174 06-09-2011 10:38:02 16.8 C 49 % 6.04 C
175 06-09-2011 10:50:02 16.8 C 49 % 6.04 C
Sensor: Nr:Datum:Temp:Feuchte:Taupunkt:
Aussen-T/F 176 06-09-2011 11:02:02 17.4 C 47 % 5.98 C
177 06-09-2011 11:14:02 18.1 C 45 % 5.99 C
178 06-09-2011 11:26:02 17.8 C 44 % 5.4 C
179 06-09-2011 11:38:02 17.9 C 44 % 5.49 C
180 06-09-2011 11:50:02 18.2 C 42 % 5.09 C
181 06-09-2011 12:02:02 18.8 C 41 % 5.28 C
182 06-09-2011 12:14:02 18.8 C 41 % 5.28 C
183 06-09-2011 12:26:03 19.6 C 41 % 6 C
184 06-09-2011 12:38:02 19 C 39 % 4.75 C
185 06-09-2011 12:50:03 20.1 C 38 % 5.35 C
186 06-09-2011 13:02:02 19.5 C 39 % 5.19 C
187 06-09-2011 13:14:02 19.7 C 39 % 5.37 C
188 06-09-2011 13:26:02 20.1 C 38 % 5.35 C
189 06-09-2011 13:38:02 19.8 C 39 % 5.46 C
190 06-09-2011 13:50:02 20.7 C 39 % 6.26 C
191 06-09-2011 14:02:02 21.4 C 37 % 6.12 C
192 06-09-2011 14:14:02 21.1 C 36 % 5.46 C
193 06-09-2011 14:26:02 20.8 C 36 % 5.2 C
194 06-09-2011 14:38:03 20.7 C 36 % 5.11 C
195 06-09-2011 14:50:02 20.3 C 36 % 4.76 C
196 06-09-2011 15:02:02 21 C 36 % 5.37 C
197 06-09-2011 15:14:02 21.2 C 35 % 5.14 C
198 06-09-2011 15:26:02 20.8 C 37 % 5.59 C
199 06-09-2011 15:38:02 20.1 C 37 % 4.97 C
200 06-09-2011 15:50:01 19.8 C 38 % 5.09 C
Sensor: Nr:Datum:Temp:Feuchte:Taupunkt:
Aussen-T/F 201 06-09-2011 16:02:02 19.7 C 40 % 5.73 C
202 06-09-2011 16:14:02 19.4 C 40 % 5.47 C
203 06-09-2011 16:26:01 19.4 C 40 % 5.47 C
204 06-09-2011 16:38:02 19.4 C 40 % 5.47 C
205 06-09-2011 16:50:01 19.5 C 42 % 6.26 C
206 06-09-2011 17:02:02 19.2 C 41 % 5.64 C
207 06-09-2011 17:14:02 19.5 C 43 % 6.6 C
208 06-09-2011 17:26:02 19.3 C 41 % 5.73 C
209 06-09-2011 17:38:02 19.2 C 42 % 5.99 C
210 06-09-2011 17:50:02 19.1 C 41 % 5.55 C
211 06-09-2011 18:02:02 18.7 C 44 % 6.21 C
212 06-09-2011 18:14:02 18.5 C 45 % 6.36 C
213 06-09-2011 18:26:02 18.2 C 47 % 6.71 C
214 06-09-2011 18:38:03 18.3 C 46 % 6.49 C
215 06-09-2011 18:50:02 18.5 C 46 % 6.67 C
216 06-09-2011 19:02:02 18.3 C 46 % 6.49 C
217 06-09-2011 19:14:02 18.3 C 46 % 6.49 C
218 06-09-2011 19:26:02 18.2 C 47 % 6.71 C
219 06-09-2011 19:38:02 18.2 C 47 % 6.71 C
220 06-09-2011 19:50:02 18.2 C 46 % 6.4 C
221 06-09-2011 20:02:02 17.8 C 50 % 7.25 C
222 06-09-2011 20:14:02 18 C 47 % 6.53 C
223 06-09-2011 20:26:02 17.9 C 50 % 7.34 C
224 06-09-2011 20:38:03 17.8 C 50 % 7.25 C
225 06-09-2011 20:50:02 18 C 48 % 6.84 C
Sensor: Nr:Datum:Temp:Feuchte:Taupunkt:
Aussen-T/F 226 06-09-2011 21:02:02 17.9 C 50 % 7.34 C
227 06-09-2011 21:14:02 17.7 C 51 % 7.45 C
228 06-09-2011 21:26:02 17.6 C 51 % 7.35 C
229 06-09-2011 21:38:02 18.1 C 48 % 6.93 C
230 06-09-2011 21:50:02 18.5 C 47 % 6.99 C
231 06-09-2011 22:02:02 18.5 C 47 % 6.99 C
232 06-09-2011 22:14:02 18.6 C 47 % 7.08 C
233 06-09-2011 22:27:02 18.8 C 47 % 7.26 C
234 06-09-2011 22:39:02 18.9 C 46 % 7.04 C
235 06-09-2011 22:51:02 19.1 C 46 % 7.22 C
236 06-09-2011 23:03:02 19.1 C 46 % 7.22 C
237 06-09-2011 23:15:02 19 C 46 % 7.13 C
238 06-09-2011 23:27:02 19.1 C 46 % 7.22 C
239 06-09-2011 23:39:02 19 C 46 % 7.13 C
240 06-09-2011 23:51:02 19.1 C 46 % 7.22 C
241 07-09-2011 00:03:02 19.1 C 47 % 7.53 C
242 07-09-2011 00:15:02 19.1 C 47 % 7.53 C
243 07-09-2011 00:27:03 19.1 C 47 % 7.53 C
244 07-09-2011 00:39:03 19.1 C 48 % 7.84 C
245 07-09-2011 00:51:03 19.1 C 48 % 7.84 C
246 07-09-2011 01:03:03 19 C 48 % 7.75 C
247 07-09-2011 01:15:03 18.3 C 53 % 8.56 C
248 07-09-2011 01:27:03 18.3 C 54 % 8.84 C
249 07-09-2011 01:39:03 18 C 55 % 8.83 C
250 07-09-2011 01:51:03 17.9 C 57 % 9.27 C
Sensor: Nr:Datum:Temp:Feuchte:Taupunkt:
Aussen-T/F 251 07-09-2011 02:03:03 17.4 C 60 % 9.56 C
252 07-09-2011 02:15:03 16.4 C 66 % 10.04 C
253 07-09-2011 02:27:03 15.7 C 74 % 11.08 C
254 07-09-2011 02:39:03 15.6 C 77 % 11.59 C
255 07-09-2011 02:51:03 15.4 C 78 % 11.59 C
256 07-09-2011 03:03:03 15.4 C 79 % 11.78 C
257 07-09-2011 03:15:03 15.4 C 79 % 11.78 C
258 07-09-2011 03:27:03 15.8 C 78 % 11.97 C
259 07-09-2011 03:39:03 15.8 C 76 % 11.58 C
260 07-09-2011 03:51:03 15.4 C 79 % 11.78 C
261 07-09-2011 04:03:03 15.9 C 78 % 12.07 C
262 07-09-2011 04:15:03 15.8 C 78 % 11.97 C
263 07-09-2011 04:27:03 15.9 C 77 % 11.88 C
264 07-09-2011 04:39:03 15.7 C 77 % 11.68 C
265 07-09-2011 04:51:04 15.7 C 78 % 11.88 C
266 07-09-2011 05:03:04 15.7 C 78 % 11.88 C
267 07-09-2011 05:15:04 16 C 76 % 11.77 C
268 07-09-2011 05:27:04 15.6 C 78 % 11.78 C
269 07-09-2011 05:39:04 15.3 C 81 % 12.06 C
270 07-09-2011 05:51:04 15 C 84 % 12.32 C
271 07-09-2011 06:03:04 14.4 C 80 % 11 C
272 07-09-2011 06:15:04 14 C 72 % 9.04 C
273 07-09-2011 06:27:04 14.1 C 69 % 8.5 C
274 07-09-2011 06:39:04 13.9 C 72 % 8.94 C
275 07-09-2011 06:51:04 13.4 C 77 % 9.45 C
Sensor: Nr:Datum:Temp:Feuchte:Taupunkt:
Aussen-T/F 276 07-09-2011 07:03:03 13.3 C 78 % 9.55 C
277 07-09-2011 07:15:03 13.6 C 75 % 9.26 C
278 07-09-2011 07:27:03 13.5 C 74 % 8.96 C
279 07-09-2011 07:39:02 13.3 C 76 % 9.16 C
280 07-09-2011 07:51:01 13.2 C 79 % 9.64 C
281 07-09-2011 08:03:02 13.5 C 78 % 9.74 C
282 07-09-2011 08:15:01 13.8 C 73 % 9.05 C
283 07-09-2011 08:27:01 14.1 C 70 % 8.72 C
284 07-09-2011 08:39:02 14.3 C 67 % 8.26 C
285 07-09-2011 08:51:02 14.2 C 67 % 8.17 C
286 07-09-2011 09:03:02 14.4 C 65 % 7.91 C
287 07-09-2011 09:15:02 14.6 C 63 % 7.64 C
288 07-09-2011 09:27:02 14.8 C 60 % 7.12 C
289 07-09-2011 09:39:02 14.9 C 62 % 7.69 C
290 07-09-2011 09:51:01 14.9 C 63 % 7.93 C
291 07-09-2011 10:03:02 14.9 C 64 % 8.16 C
292 07-09-2011 10:15:02 14.9 C 65 % 8.39 C
293 07-09-2011 10:27:02 14.8 C 64 % 8.06 C
294 07-09-2011 10:39:02 15.5 C 61 % 8.02 C
295 07-09-2011 10:51:02 15.7 C 61 % 8.21 C
296 07-09-2011 11:03:01 15.6 C 61 % 8.11 C
297 07-09-2011 11:15:02 15.4 C 57 % 6.93 C
298 07-09-2011 11:27:03 16.1 C 46 % 4.49 C
299 07-09-2011 11:39:01 16.6 C 47 % 5.25 C
300 07-09-2011 11:51:02 16.2 C 50 % 5.78 C
Sensor: Nr:Datum:Temp:Feuchte:Taupunkt:
Aussen-T/F 301 07-09-2011 12:03:01 16.6 C 45 % 4.63 C
302 07-09-2011 12:15:01 16.8 C 43 % 4.16 C
303 07-09-2011 12:27:01 17.4 C 42 % 4.37 C
304 07-09-2011 12:39:02 17.5 C 40 % 3.77 C
305 07-09-2011 12:51:02 17.5 C 41 % 4.12 C
306 07-09-2011 13:03:02 17.8 C 40 % 4.03 C
307 07-09-2011 13:15:02 17.5 C 41 % 4.12 C
308 07-09-2011 13:27:02 17.7 C 45 % 5.63 C
309 07-09-2011 13:39:02 17.9 C 42 % 4.82 C
310 07-09-2011 13:51:02 19.3 C 39 % 5.01 C
311 07-09-2011 14:03:03 18.1 C 39 % 3.94 C
312 07-09-2011 14:15:02 18.5 C 40 % 4.66 C
313 07-09-2011 14:27:02 18.5 C 38 % 3.93 C
314 07-09-2011 14:39:02 17.9 C 40 % 4.12 C
315 07-09-2011 14:51:01 18.1 C 40 % 4.3 C
316 07-09-2011 15:03:02 18 C 40 % 4.21 C
317 07-09-2011 15:15:01 20.5 C 34 % 4.12 C
318 07-09-2011 15:27:01 18.7 C 38 % 4.11 C
319 07-09-2011 15:39:01 18.5 C 40 % 4.66 C
320 07-09-2011 15:51:01 18.3 C 37 % 3.38 C
321 07-09-2011 16:03:01 18.4 C 39 % 4.21 C
322 07-09-2011 16:15:02 19.2 C 37 % 4.17 C
323 07-09-2011 16:27:02 19.1 C 39 % 4.84 C
324 07-09-2011 16:39:01 19.2 C 38 % 4.55 C
325 07-09-2011 16:51:02 19 C 37 % 4 C
Sensor: Nr:Datum:Temp:Feuchte:Taupunkt:
Aussen-T/F 326 07-09-2011 17:03:01 18.4 C 38 % 3.84 C
327 07-09-2011 17:15:01 18 C 39 % 3.85 C
328 07-09-2011 17:27:01 17.8 C 43 % 5.07 C
329 07-09-2011 17:39:01 18.1 C 40 % 4.3 C
330 07-09-2011 17:51:02 18.2 C 38 % 3.66 C
331 07-09-2011 18:03:02 18.1 C 39 % 3.94 C
332 07-09-2011 18:15:02 18 C 39 % 3.85 C
333 07-09-2011 18:27:02 17.8 C 41 % 4.39 C
334 07-09-2011 18:39:02 17.4 C 46 % 5.67 C
335 07-09-2011 18:51:02 17.3 C 44 % 4.94 C
336 07-09-2011 19:03:02 17.5 C 41 % 4.12 C
337 07-09-2011 19:15:02 17.2 C 43 % 4.53 C
338 07-09-2011 19:27:02 16.9 C 46 % 5.22 C
339 07-09-2011 19:39:02 16.5 C 48 % 5.46 C
340 07-09-2011 19:51:02 16.6 C 48 % 5.56 C
341 07-09-2011 20:03:02 16.9 C 46 % 5.22 C
342 07-09-2011 20:15:02 17 C 46 % 5.31 C
343 07-09-2011 20:27:02 16.5 C 49 % 5.76 C
344 07-09-2011 20:39:02 16 C 53 % 6.44 C
345 07-09-2011 20:51:03 15.8 C 55 % 6.79 C
346 07-09-2011 21:03:02 15.7 C 56 % 6.96 C
347 07-09-2011 21:15:03 15.7 C 56 % 6.96 C
348 07-09-2011 21:27:03 15.4 C 58 % 7.19 C
349 07-09-2011 21:39:03 15.2 C 60 % 7.5 C
350 07-09-2011 21:51:01 15 C 61 % 7.55 C
Sensor: Nr:Datum:Temp:Feuchte:Taupunkt:
Aussen-T/F 351 07-09-2011 22:03:01 15.4 C 59 % 7.44 C
352 07-09-2011 22:16:00 15.4 C 58 % 7.19 C
353 07-09-2011 22:28:00 15.8 C 54 % 6.52 C
354 07-09-2011 22:40:00 15.7 C 55 % 6.69 C
355 07-09-2011 22:52:00 15.6 C 53 % 6.06 C
356 07-09-2011 23:04:00 15.4 C 54 % 6.15 C
357 07-09-2011 23:16:00 15.4 C 54 % 6.15 C
358 07-09-2011 23:28:00 15.4 C 55 % 6.42 C
359 07-09-2011 23:40:00 15.2 C 55 % 6.23 C
360 07-09-2011 23:52:00 15.5 C 54 % 6.24 C
361 08-09-2011 00:04:00 15.5 C 53 % 5.97 C
362 08-09-2011 00:16:00 15.5 C 53 % 5.97 C
363 08-09-2011 00:28:00 15.5 C 53 % 5.97 C
364 08-09-2011 00:40:00 15.5 C 53 % 5.97 C
365 08-09-2011 00:52:01 15.4 C 53 % 5.88 C
366 08-09-2011 01:04:01 15.4 C 54 % 6.15 C
367 08-09-2011 01:16:01 15.3 C 54 % 6.06 C
368 08-09-2011 01:28:01 15.1 C 55 % 6.14 C
369 08-09-2011 01:40:01 15.1 C 54 % 5.87 C
370 08-09-2011 01:52:01 14.9 C 56 % 6.21 C
371 08-09-2011 02:04:01 14.8 C 57 % 6.37 C
372 08-09-2011 02:16:01 14.7 C 57 % 6.28 C
373 08-09-2011 02:28:01 14.7 C 58 % 6.53 C
374 08-09-2011 02:40:01 14.6 C 59 % 6.69 C
375 08-09-2011 02:52:01 14.6 C 60 % 6.93 C
Sensor: Nr:Datum:Temp:Feuchte:Taupunkt:
Aussen-T/F 376 08-09-2011 03:04:01 14.6 C 60 % 6.93 C
377 08-09-2011 03:16:01 14.5 C 62 % 7.32 C
378 08-09-2011 03:28:01 14.6 C 62 % 7.41 C
379 08-09-2011 03:40:01 14.5 C 61 % 7.08 C
380 08-09-2011 03:52:01 14.5 C 60 % 6.84 C
381 08-09-2011 04:04:01 14.3 C 62 % 7.13 C
382 08-09-2011 04:16:01 14.2 C 62 % 7.03 C
383 08-09-2011 04:28:01 14.4 C 62 % 7.22 C
384 08-09-2011 04:40:01 14 C 63 % 7.08 C
385 08-09-2011 04:52:01 14.4 C 64 % 7.68 C
386 08-09-2011 05:04:02 14.2 C 64 % 7.5 C
387 08-09-2011 05:16:02 14.1 C 64 % 7.4 C
388 08-09-2011 05:28:02 14.2 C 64 % 7.5 C
389 08-09-2011 05:40:02 14.4 C 62 % 7.22 C
390 08-09-2011 05:52:02 14.4 C 62 % 7.22 C
391 08-09-2011 06:04:02 14.4 C 62 % 7.22 C
392 08-09-2011 06:16:02 14.4 C 61 % 6.98 C
393 08-09-2011 06:28:02 14.4 C 61 % 6.98 C
394 08-09-2011 06:40:02 14.1 C 63 % 7.17 C
395 08-09-2011 06:52:02 14.1 C 63 % 7.17 C
396 08-09-2011 07:04:02 13.6 C 66 % 7.38 C
397 08-09-2011 07:16:02 13.8 C 65 % 7.34 C
398 08-09-2011 07:28:02 13.9 C 64 % 7.21 C
399 08-09-2011 07:40:02 13.9 C 65 % 7.44 C
400 08-09-2011 07:52:02 14 C 63 % 7.08 C
Sensor: Nr:Datum:Temp:Feuchte:Taupunkt:
Aussen-T/F 401 08-09-2011 08:04:01 13.9 C 64 % 7.21 C
402 08-09-2011 08:16:00 14.1 C 63 % 7.17 C
403 08-09-2011 08:28:00 14.2 C 63 % 7.27 C
404 08-09-2011 08:40:00 14.3 C 63 % 7.36 C
405 08-09-2011 08:52:01 14.3 C 63 % 7.36 C
406 08-09-2011 09:04:01 14.4 C 62 % 7.22 C
407 08-09-2011 09:16:01 14.4 C 62 % 7.22 C
408 08-09-2011 09:28:01 14.5 C 62 % 7.32 C
409 08-09-2011 09:40:00 14.5 C 62 % 7.32 C
410 08-09-2011 09:52:02 14.6 C 61 % 7.17 C
411 08-09-2011 10:04:01 14.6 C 61 % 7.17 C
412 08-09-2011 10:16:01 14.9 C 61 % 7.45 C
413 08-09-2011 10:28:01 15.1 C 59 % 7.16 C
414 08-09-2011 10:40:01 15.2 C 59 % 7.25 C
415 08-09-2011 10:52:02 15.4 C 58 % 7.19 C
416 08-09-2011 11:04:01 15.8 C 57 % 7.31 C
417 08-09-2011 11:16:01 15.8 C 57 % 7.31 C
418 08-09-2011 11:28:01 15.9 C 56 % 7.14 C
419 08-09-2011 11:40:01 15.8 C 57 % 7.31 C
420 08-09-2011 11:52:02 16 C 55 % 6.97 C
421 08-09-2011 12:04:02 15.9 C 56 % 7.14 C
422 08-09-2011 12:16:01 15.8 C 56 % 7.05 C
423 08-09-2011 12:28:01 16 C 55 % 6.97 C
424 08-09-2011 12:40:01 16 C 55 % 6.97 C
425 08-09-2011 12:52:02 15.9 C 55 % 6.88 C
Sensor: Nr:Datum:Temp:Feuchte:Taupunkt:
Aussen-T/F 426 08-09-2011 13:04:02 15.5 C 59 % 7.53 C
427 08-09-2011 13:16:02 15.2 C 61 % 7.74 C
428 08-09-2011 13:28:02 16 C 58 % 7.75 C
429 08-09-2011 13:40:01 16.3 C 55 % 7.25 C
430 08-09-2011 13:52:01 16.1 C 54 % 6.8 C
431 08-09-2011 14:04:02 16.5 C 54 % 7.17 C
432 08-09-2011 14:16:02 16.4 C 54 % 7.08 C
433 08-09-2011 14:28:02 16.8 C 53 % 7.18 C
434 08-09-2011 14:40:02 16.6 C 54 % 7.26 C
435 08-09-2011 14:52:02 16.3 C 55 % 7.25 C
436 08-09-2011 15:04:01 16.9 C 54 % 7.54 C
437 08-09-2011 15:16:02 17.2 C 52 % 7.27 C
438 08-09-2011 15:28:02 17.2 C 52 % 7.27 C
439 08-09-2011 15:40:02 16.8 C 54 % 7.45 C
440 08-09-2011 15:52:01 16.9 C 54 % 7.54 C
441 08-09-2011 16:04:02 16.8 C 55 % 7.72 C
442 08-09-2011 16:16:01 16.8 C 55 % 7.72 C
443 08-09-2011 16:28:01 16.8 C 55 % 7.72 C
444 08-09-2011 16:40:02 16.8 C 54 % 7.45 C
445 08-09-2011 16:52:02 16.9 C 54 % 7.54 C
446 08-09-2011 17:04:02 16.8 C 55 % 7.72 C
447 08-09-2011 17:16:02 16.7 C 55 % 7.62 C
448 08-09-2011 17:28:02 16.6 C 56 % 7.8 C
449 08-09-2011 17:40:02 16.7 C 55 % 7.62 C
450 08-09-2011 17:52:02 16.5 C 56 % 7.7 C
Sensor: Nr:Datum:Temp:Feuchte:Taupunkt:
Aussen-T/F 451 08-09-2011 18:04:01 16.5 C 56 % 7.7 C
452 08-09-2011 18:16:01 16.4 C 56 % 7.61 C
453 08-09-2011 18:28:01 16.4 C 56 % 7.61 C
454 08-09-2011 18:40:02 16.4 C 57 % 7.87 C
455 08-09-2011 18:52:02 16.2 C 58 % 7.94 C
456 08-09-2011 19:04:02 16.2 C 58 % 7.94 C
457 08-09-2011 19:16:02 16 C 59 % 8 C
458 08-09-2011 19:28:02 14.7 C 67 % 8.64 C
459 08-09-2011 19:40:17 14.4 C 71 % 9.21 C
460 08-09-2011 19:52:02 14.5 C 72 % 9.52 C
461 08-09-2011 20:04:02 14.7 C 70 % 9.29 C
462 08-09-2011 20:16:02 15 C 68 % 9.15 C
463 08-09-2011 20:28:02 15.3 C 67 % 9.21 C
464 08-09-2011 20:40:02 15.5 C 65 % 8.96 C
465 08-09-2011 20:52:02 15.5 C 65 % 8.96 C
466 08-09-2011 21:04:02 15.8 C 64 % 9.01 C
467 08-09-2011 21:16:02 15.8 C 63 % 8.78 C
468 08-09-2011 21:28:02 15.8 C 63 % 8.78 C
469 08-09-2011 21:40:03 15.9 C 63 % 8.87 C
470 08-09-2011 21:52:02 16 C 61 % 8.49 C
471 08-09-2011 22:04:02 15.9 C 62 % 8.64 C
472 08-09-2011 22:16:03 16.1 C 61 % 8.58 C
473 08-09-2011 22:28:03 16 C 61 % 8.49 C
474 08-09-2011 22:41:03 16 C 62 % 8.73 C
475 08-09-2011 22:53:03 16 C 62 % 8.73 C
Sensor: Nr:Datum:Temp:Feuchte:Taupunkt:
Aussen-T/F 476 08-09-2011 23:05:03 15.9 C 63 % 8.87 C
477 08-09-2011 23:17:03 15.8 C 64 % 9.01 C
478 08-09-2011 23:29:03 15.8 C 65 % 9.24 C
479 08-09-2011 23:41:04 15.5 C 66 % 9.18 C
480 08-09-2011 23:53:04 15.4 C 68 % 9.53 C
481 09-09-2011 00:05:04 15.6 C 68 % 9.72 C
482 09-09-2011 00:17:04 15.7 C 68 % 9.82 C
483 09-09-2011 00:29:04 15.8 C 68 % 9.91 C
484 09-09-2011 00:41:04 15.6 C 69 % 9.94 C
485 09-09-2011 00:53:04 15.5 C 69 % 9.84 C
486 09-09-2011 01:05:04 15.4 C 70 % 9.96 C
487 09-09-2011 01:17:04 15.7 C 70 % 10.25 C
488 09-09-2011 01:29:04 15.7 C 70 % 10.25 C
489 09-09-2011 01:41:04 15.9 C 69 % 10.23 C
490 09-09-2011 01:53:04 15.8 C 70 % 10.34 C
491 09-09-2011 02:05:04 15.9 C 70 % 10.44 C
492 09-09-2011 02:17:04 15.9 C 70 % 10.44 C
493 09-09-2011 02:29:04 15.9 C 70 % 10.44 C
494 09-09-2011 02:41:04 15.8 C 71 % 10.56 C
495 09-09-2011 02:53:04 16 C 70 % 10.54 C
496 09-09-2011 03:05:04 16.2 C 69 % 10.51 C
497 09-09-2011 03:17:04 16.3 C 69 % 10.61 C
498 09-09-2011 03:29:04 16.2 C 69 % 10.51 C
499 09-09-2011 03:41:04 15.9 C 72 % 10.86 C
500 09-09-2011 03:53:05 15.9 C 73 % 11.07 C
Sensor: Nr:Datum:Temp:Feuchte:Taupunkt:
Aussen-T/F 501 09-09-2011 04:05:05 15.8 C 73 % 10.97 C
502 09-09-2011 04:17:05 15.4 C 76 % 11.19 C
503 09-09-2011 04:29:05 15.1 C 79 % 11.49 C
504 09-09-2011 04:41:05 15 C 81 % 11.77 C
505 09-09-2011 04:53:05 14.9 C 83 % 12.04 C
506 09-09-2011 05:05:05 14.8 C 84 % 12.12 C
507 09-09-2011 05:17:05 14.8 C 85 % 12.3 C
508 09-09-2011 05:29:05 14.6 C 85 % 12.11 C
509 09-09-2011 05:41:05 14.7 C 86 % 12.38 C
510 09-09-2011 05:53:05 14.8 C 86 % 12.48 C
511 09-09-2011 06:05:05 14.6 C 87 % 12.46 C
512 09-09-2011 06:17:05 14.5 C 87 % 12.36 C
513 09-09-2011 06:29:05 14.7 C 87 % 12.56 C
514 09-09-2011 06:41:05 14.8 C 87 % 12.66 C
515 09-09-2011 06:53:05 14.8 C 88 % 12.83 C
516 09-09-2011 07:05:05 14.8 C 88 % 12.83 C
517 09-09-2011 07:17:05 15.1 C 87 % 12.95 C
518 09-09-2011 07:29:05 15.1 C 87 % 12.95 C
519 09-09-2011 07:41:04 15.3 C 87 % 13.15 C
520 09-09-2011 07:53:02 15.4 C 87 % 13.25 C
521 09-09-2011 08:05:03 15.6 C 87 % 13.45 C
522 09-09-2011 08:17:02 16 C 86 % 13.66 C
523 09-09-2011 08:29:02 16.3 C 84 % 13.59 C
524 09-09-2011 08:41:03 16.5 C 82 % 13.42 C
525 09-09-2011 08:53:02 16.8 C 80 % 13.33 C
Sensor: Nr:Datum:Temp:Feuchte:Taupunkt:
Aussen-T/F 526 09-09-2011 09:05:02 17.2 C 78 % 13.33 C
527 09-09-2011 09:17:02 18.1 C 73 % 13.19 C
528 09-09-2011 09:29:02 18.1 C 72 % 12.98 C
529 09-09-2011 09:41:02 18.3 C 72 % 13.17 C
530 09-09-2011 09:53:01 18.5 C 71 % 13.15 C
531 09-09-2011 10:05:01 18.7 C 70 % 13.12 C
532 09-09-2011 10:17:02 19.2 C 67 % 12.93 C
533 09-09-2011 10:29:02 19.3 C 66 % 12.79 C
534 09-09-2011 10:41:01 20.6 C 61 % 12.82 C
535 09-09-2011 10:53:02 20.7 C 60 % 12.66 C
536 09-09-2011 11:05:01 20 C 60 % 12 C
537 09-09-2011 11:17:02 19.9 C 62 % 12.41 C
538 09-09-2011 11:29:02 19.8 C 63 % 12.56 C
539 09-09-2011 11:41:02 19.3 C 65 % 12.56 C
540 09-09-2011 11:53:02 18.8 C 69 % 13 C
541 09-09-2011 12:05:02 18.9 C 71 % 13.53 C
542 09-09-2011 12:17:01 19.3 C 70 % 13.69 C
543 09-09-2011 12:29:01 19.9 C 70 % 14.27 C
544 09-09-2011 12:41:02 20.3 C 65 % 13.51 C
545 09-09-2011 12:53:02 20.5 C 64 % 13.46 C
546 09-09-2011 13:05:02 20.8 C 62 % 13.26 C
547 09-09-2011 13:17:02 20.7 C 63 % 13.41 C
548 09-09-2011 13:29:02 19.9 C 69 % 14.05 C
549 09-09-2011 13:41:02 19.1 C 73 % 14.15 C
550 09-09-2011 13:53:01 19.2 C 74 % 14.46 C
Sensor: Nr:Datum:Temp:Feuchte:Taupunkt:
Aussen-T/F 551 09-09-2011 14:05:02 20.1 C 72 % 14.9 C
552 09-09-2011 14:17:36 21.4 C 65 % 14.55 C
553 09-09-2011 14:29:36 21.8 C 64 % 14.69 C
554 09-09-2011 14:41:02 22 C 64 % 14.88 C
555 09-09-2011 14:53:02 22 C 63 % 14.63 C
556 09-09-2011 15:05:02 22.1 C 61 % 14.23 C
557 09-09-2011 15:17:02 22.7 C 60 % 14.54 C
558 09-09-2011 15:29:02 24 C 54 % 14.12 C
559 09-09-2011 15:41:02 22.8 C 59 % 14.37 C
560 09-09-2011 15:53:01 22.6 C 62 % 14.95 C
561 09-09-2011 16:05:02 22 C 63 % 14.63 C
562 09-09-2011 16:17:01 22.4 C 62 % 14.76 C
563 09-09-2011 16:29:01 22.8 C 61 % 14.89 C
564 09-09-2011 16:41:02 23 C 60 % 14.82 C
565 09-09-2011 16:53:02 22.9 C 60 % 14.73 C
566 09-09-2011 17:05:02 22.9 C 61 % 14.98 C
567 09-09-2011 17:17:02 22.7 C 62 % 15.05 C
568 09-09-2011 17:29:02 22.5 C 65 % 15.59 C
569 09-09-2011 17:41:02 21.6 C 69 % 15.67 C
570 09-09-2011 17:53:02 21.4 C 73 % 16.36 C
571 09-09-2011 18:05:02 21.7 C 73 % 16.65 C
572 09-09-2011 18:17:02 22.2 C 70 % 16.47 C
573 09-09-2011 18:29:03 22.5 C 67 % 16.07 C
574 09-09-2011 18:41:02 22.1 C 69 % 16.15 C
575 09-09-2011 18:53:02 21.2 C 72 % 15.95 C
Sensor: Nr:Datum:Temp:Feuchte:Taupunkt:
Aussen-T/F 576 09-09-2011 19:05:01 20.6 C 76 % 16.22 C
577 09-09-2011 19:17:02 20.4 C 79 % 16.64 C
578 09-09-2011 19:29:02 20.2 C 81 % 16.84 C
579 09-09-2011 19:41:02 20 C 82 % 16.83 C
580 09-09-2011 19:53:01 19.8 C 84 % 17.02 C
581 09-09-2011 20:05:02 19.7 C 84 % 16.92 C
582 09-09-2011 20:17:01 19.5 C 85 % 16.91 C
583 09-09-2011 20:29:01 19.4 C 85 % 16.81 C
584 09-09-2011 20:41:02 19.2 C 86 % 16.8 C
585 09-09-2011 20:53:01 19 C 86 % 16.6 C
586 09-09-2011 21:05:02 18.9 C 87 % 16.69 C
587 09-09-2011 21:17:01 19.1 C 86 % 16.7 C
588 09-09-2011 21:29:01 19.2 C 87 % 16.98 C
589 09-09-2011 21:41:02 19 C 87 % 16.79 C
590 09-09-2011 21:53:01 18.9 C 87 % 16.69 C
591 09-09-2011 22:05:02 18.9 C 88 % 16.87 C
592 09-09-2011 22:17:02 18.7 C 88 % 16.67 C
593 09-09-2011 22:29:02 18.6 C 88 % 16.57 C
594 09-09-2011 22:41:02 18.3 C 88 % 16.28 C
595 09-09-2011 22:53:02 18.4 C 88 % 16.38 C
596 09-09-2011 23:05:02 18.4 C 88 % 16.38 C
597 09-09-2011 23:18:47 18.6 C 88 % 16.57 C
598 09-09-2011 23:30:47 18.5 C 88 % 16.48 C
599 09-09-2011 23:42:47 18.4 C 88 % 16.38 C
600 09-09-2011 23:54:47 18.1 C 88 % 16.08 C
Sensor: Nr:Datum:Temp:Feuchte:Taupunkt:
Aussen-T/F 601 10-09-2011 00:06:47 18.2 C 88 % 16.18 C
602 10-09-2011 00:18:47 18.1 C 88 % 16.08 C
603 10-09-2011 00:30:47 18.3 C 88 % 16.28 C
604 10-09-2011 00:42:47 18.3 C 88 % 16.28 C
605 10-09-2011 00:54:47 18.4 C 88 % 16.38 C
606 10-09-2011 01:06:47 18.2 C 88 % 16.18 C
607 10-09-2011 01:18:47 18 C 88 % 15.98 C
608 10-09-2011 01:30:47 17.9 C 89 % 16.06 C
609 10-09-2011 01:42:47 17.9 C 89 % 16.06 C
610 10-09-2011 01:54:47 17.6 C 89 % 15.77 C
611 10-09-2011 02:06:47 17.1 C 89 % 15.27 C
612 10-09-2011 02:18:48 17 C 88 % 15 C
613 10-09-2011 02:30:48 17.3 C 89 % 15.47 C
614 10-09-2011 02:42:48 17.6 C 89 % 15.77 C
615 10-09-2011 02:54:48 17.7 C 89 % 15.86 C
616 10-09-2011 03:06:48 17.7 C 89 % 15.86 C
617 10-09-2011 03:18:48 17.7 C 89 % 15.86 C
618 10-09-2011 03:30:48 17.8 C 89 % 15.96 C
619 10-09-2011 03:42:48 17.8 C 89 % 15.96 C
620 10-09-2011 03:54:48 17.8 C 89 % 15.96 C
621 10-09-2011 04:06:48 17.7 C 89 % 15.86 C
622 10-09-2011 04:18:48 17.5 C 89 % 15.67 C
623 10-09-2011 04:30:48 17.5 C 89 % 15.67 C
624 10-09-2011 04:42:48 17.5 C 89 % 15.67 C
625 10-09-2011 04:54:48 17.5 C 89 % 15.67 C
Sensor: Nr:Datum:Temp:Feuchte:Taupunkt:
Aussen-T/F 626 10-09-2011 05:06:48 17.4 C 89 % 15.57 C
627 10-09-2011 05:18:48 17.4 C 89 % 15.57 C
628 10-09-2011 05:30:48 17.5 C 89 % 15.67 C
629 10-09-2011 05:42:48 17.6 C 90 % 15.94 C
630 10-09-2011 05:54:48 17.6 C 90 % 15.94 C
631 10-09-2011 06:06:48 17.6 C 90 % 15.94 C
632 10-09-2011 06:18:49 17.6 C 90 % 15.94 C
633 10-09-2011 06:30:49 17.6 C 90 % 15.94 C
634 10-09-2011 06:42:49 17.5 C 90 % 15.84 C
635 10-09-2011 06:54:49 17.5 C 90 % 15.84 C
636 10-09-2011 07:06:49 17.4 C 90 % 15.74 C
637 10-09-2011 07:18:49 17.4 C 90 % 15.74 C
638 10-09-2011 07:30:49 17.4 C 90 % 15.74 C
639 10-09-2011 07:42:49 17.5 C 90 % 15.84 C
640 10-09-2011 07:54:02 17.5 C 90 % 15.84 C
641 10-09-2011 08:06:01 17.5 C 90 % 15.84 C
642 10-09-2011 08:18:01 17.4 C 90 % 15.74 C
643 10-09-2011 08:30:01 17.4 C 90 % 15.74 C
644 10-09-2011 08:42:01 17.6 C 90 % 15.94 C
645 10-09-2011 08:54:02 17.9 C 90 % 16.24 C
646 10-09-2011 09:06:03 18.3 C 89 % 16.46 C
647 10-09-2011 09:18:02 19.2 C 88 % 17.16 C
648 10-09-2011 09:30:02 19.7 C 89 % 17.84 C
649 10-09-2011 09:42:02 19.8 C 89 % 17.93 C
650 10-09-2011 09:54:01 19.9 C 88 % 17.85 C
Sensor: Nr:Datum:Temp:Feuchte:Taupunkt:
Aussen-T/F 651 10-09-2011 10:06:02 19.6 C 86 % 17.19 C
652 10-09-2011 10:18:01 19.6 C 85 % 17.01 C
653 10-09-2011 10:30:01 19.3 C 84 % 16.53 C
654 10-09-2011 10:42:01 19.2 C 85 % 16.62 C
655 10-09-2011 10:54:01 19.3 C 85 % 16.72 C
656 10-09-2011 11:06:02 19.7 C 86 % 17.29 C
657 10-09-2011 11:18:02 19.7 C 86 % 17.29 C
658 10-09-2011 11:30:02 20.1 C 86 % 17.68 C
659 10-09-2011 11:42:01 20.4 C 86 % 17.98 C
660 10-09-2011 11:54:02 20.8 C 84 % 18 C
661 10-09-2011 12:06:01 20.8 C 84 % 18 C
662 10-09-2011 12:18:02 21 C 82 % 17.81 C
663 10-09-2011 12:30:03 21.7 C 79 % 17.9 C
664 10-09-2011 12:42:01 21.7 C 77 % 17.49 C
665 10-09-2011 12:54:02 22.1 C 74 % 17.25 C
666 10-09-2011 13:06:02 22.5 C 71 % 16.98 C
667 10-09-2011 13:18:02 22.9 C 68 % 16.68 C
668 10-09-2011 13:30:02 23.4 C 64 % 16.2 C
669 10-09-2011 13:42:02 23.8 C 62 % 16.08 C
670 10-09-2011 13:54:02 25.2 C 56 % 15.8 C
671 10-09-2011 14:06:03 24.9 C 59 % 16.34 C
672 10-09-2011 14:18:03 24.9 C 60 % 16.6 C
673 10-09-2011 14:30:03 25.5 C 55 % 15.8 C
674 10-09-2011 14:42:03 26.5 C 53 % 16.14 C
675 10-09-2011 14:54:02 27.1 C 50 % 15.78 C
Sensor: Nr:Datum:Temp:Feuchte:Taupunkt:
Aussen-T/F 676 10-09-2011 15:06:02 28.3 C 46 % 15.57 C
677 10-09-2011 15:18:01 30.3 C 40 % 15.19 C
678 10-09-2011 15:30:01 28.3 C 51 % 17.19 C
679 10-09-2011 15:42:01 29.9 C 40 % 14.84 C
680 10-09-2011 15:54:01 29.4 C 45 % 16.23 C
681 10-09-2011 16:06:01 30.1 C 43 % 16.14 C
682 10-09-2011 16:18:01 30.9 C 39 % 15.33 C
683 10-09-2011 16:30:01 30.1 C 44 % 16.5 C
684 10-09-2011 16:42:01 29.4 C 42 % 15.15 C
685 10-09-2011 16:54:02 30.6 C 41 % 15.85 C
686 10-09-2011 17:06:02 29.7 C 45 % 16.5 C
687 10-09-2011 17:18:02 28.7 C 51 % 17.56 C
688 10-09-2011 17:30:02 28.6 C 53 % 18.08 C
689 10-09-2011 17:42:02 28.4 C 51 % 17.29 C
690 10-09-2011 17:54:02 27 C 59 % 18.3 C
691 10-09-2011 18:06:02 27 C 60 % 18.57 C
692 10-09-2011 18:18:02 27.2 C 58 % 18.22 C
693 10-09-2011 18:30:02 25.6 C 63 % 18.03 C
694 10-09-2011 18:42:02 25 C 65 % 17.96 C
695 10-09-2011 18:54:02 24.7 C 67 % 18.16 C
696 10-09-2011 19:06:02 24.5 C 67 % 17.97 C
697 10-09-2011 19:18:01 24 C 69 % 17.96 C
698 10-09-2011 19:30:01 23.5 C 72 % 18.16 C
699 10-09-2011 19:42:02 22.9 C 74 % 18.02 C
700 10-09-2011 19:54:59 22.3 C 76 % 17.86 C
Sensor: Nr:Datum:Temp:Feuchte:Taupunkt:
Aussen-T/F 701 10-09-2011 20:06:52 22 C 77 % 17.78 C
702 10-09-2011 20:18:43 21.8 C 79 % 18 C
703 10-09-2011 20:30:32 21.4 C 79 % 17.61 C
704 10-09-2011 20:42:32 21.1 C 80 % 17.51 C
705 10-09-2011 20:54:53 21.1 C 81 % 17.71 C
706 10-09-2011 21:06:45 20.7 C 82 % 17.52 C
707 10-09-2011 21:18:34 20.7 C 82 % 17.52 C
708 10-09-2011 21:30:24 20.6 C 83 % 17.61 C
709 10-09-2011 21:42:24 20.4 C 83 % 17.42 C
710 10-09-2011 21:54:47 20.4 C 83 % 17.42 C
711 10-09-2011 22:06:53 20.3 C 84 % 17.51 C
712 10-09-2011 22:18:46 20.1 C 84 % 17.31 C
713 10-09-2011 22:30:39 20 C 84 % 17.21 C
714 10-09-2011 22:42:39 20.1 C 84 % 17.31 C
715 10-09-2011 22:54:59 20.1 C 84 % 17.31 C
716 10-09-2011 23:06:52 19.9 C 85 % 17.3 C
717 10-09-2011 23:18:44 19.7 C 85 % 17.11 C
718 10-09-2011 23:30:38 19.7 C 85 % 17.11 C
719 10-09-2011 23:42:38 19.6 C 85 % 17.01 C
720 10-09-2011 23:54:01 19.7 C 86 % 17.29 C
721 11-09-2011 00:06:58 19.6 C 86 % 17.19 C
722 11-09-2011 00:18:56 19.6 C 86 % 17.19 C
723 11-09-2011 00:30:49 19.8 C 86 % 17.39 C
724 11-09-2011 00:42:49 19.6 C 86 % 17.19 C
725 11-09-2011 00:54:00 19.5 C 86 % 17.1 C
Sensor: Nr:Datum:Temp:Feuchte:Taupunkt:
Aussen-T/F 726 11-09-2011 01:06:57 19.2 C 85 % 16.62 C
727 11-09-2011 01:18:58 19.1 C 85 % 16.52 C
728 11-09-2011 01:30:57 19.2 C 86 % 16.8 C
729 11-09-2011 01:42:57 19.6 C 85 % 17.01 C
730 11-09-2011 01:54:00 19.6 C 84 % 16.82 C
731 11-09-2011 02:06:00 19.7 C 84 % 16.92 C
732 11-09-2011 02:18:00 19.9 C 83 % 16.93 C
733 11-09-2011 02:30:00 20.1 C 79 % 16.34 C
734 11-09-2011 02:42:59 20.4 C 76 % 16.03 C
735 11-09-2011 02:54:01 20.4 C 76 % 16.03 C
736 11-09-2011 03:06:01 20.4 C 76 % 16.03 C
737 11-09-2011 03:18:02 20.4 C 75 % 15.82 C
738 11-09-2011 03:30:02 20.2 C 76 % 15.83 C
739 11-09-2011 03:43:01 20.2 C 76 % 15.83 C
740 11-09-2011 03:55:02 20 C 76 % 15.64 C
741 11-09-2011 04:07:01 19.8 C 79 % 16.05 C
742 11-09-2011 04:19:01 19.7 C 79 % 15.96 C
743 11-09-2011 04:31:02 19.5 C 79 % 15.76 C
744 11-09-2011 04:43:02 20.2 C 75 % 15.63 C
745 11-09-2011 04:55:01 19.7 C 77 % 15.56 C
746 11-09-2011 05:07:02 19.5 C 78 % 15.56 C
747 11-09-2011 05:19:01 19.7 C 78 % 15.76 C
748 11-09-2011 05:31:01 19 C 80 % 15.47 C
749 11-09-2011 05:43:01 19.2 C 79 % 15.47 C
750 11-09-2011 05:55:01 19.1 C 78 % 15.18 C
Sensor: Nr:Datum:Temp:Feuchte:Taupunkt:
Aussen-T/F 751 11-09-2011 06:07:01 18.5 C 80 % 14.99 C
752 11-09-2011 06:19:01 18.1 C 82 % 14.98 C
753 11-09-2011 06:31:01 17.9 C 84 % 15.16 C
754 11-09-2011 06:43:01 18.1 C 83 % 15.17 C
755 11-09-2011 06:55:01 17.9 C 84 % 15.16 C
756 11-09-2011 07:07:01 18 C 84 % 15.26 C
757 11-09-2011 07:19:02 18 C 84 % 15.26 C
758 11-09-2011 07:31:01 18 C 84 % 15.26 C
759 11-09-2011 07:43:01 17.8 C 85 % 15.25 C
760 11-09-2011 07:55:02 17.7 C 85 % 15.15 C
761 11-09-2011 08:07:01 17.7 C 86 % 15.33 C
762 11-09-2011 08:19:01 17.7 C 86 % 15.33 C
763 11-09-2011 08:31:02 17.6 C 86 % 15.23 C
764 11-09-2011 08:43:02 17.7 C 86 % 15.33 C
765 11-09-2011 08:55:01 17.9 C 86 % 15.53 C
766 11-09-2011 09:07:02 18.1 C 86 % 15.72 C
767 11-09-2011 09:19:01 19 C 85 % 16.42 C
768 11-09-2011 09:31:01 19.5 C 85 % 16.91 C
769 11-09-2011 09:43:02 19.6 C 84 % 16.82 C
770 11-09-2011 09:55:01 21.3 C 69 % 15.38 C
771 11-09-2011 10:07:01 22.1 C 62 % 14.48 C
772 11-09-2011 10:19:01 22.1 C 61 % 14.23 C
773 11-09-2011 10:31:01 22.7 C 59 % 14.28 C
774 11-09-2011 10:43:01 22.8 C 60 % 14.63 C
775 11-09-2011 10:55:01 22.9 C 57 % 13.93 C
Sensor: Nr:Datum:Temp:Feuchte:Taupunkt:
Aussen-T/F 776 11-09-2011 11:07:01 23.2 C 55 % 13.66 C
777 11-09-2011 11:18:02 23.1 C 53 % 13 C
778 11-09-2011 11:30:02 23.5 C 52 % 13.08 C
779 11-09-2011 11:42:01 24.1 C 51 % 13.34 C
780 11-09-2011 11:54:02 23.7 C 55 % 14.13 C
781 11-09-2011 12:06:01 22.9 C 59 % 14.47 C
782 11-09-2011 12:18:01 22.9 C 63 % 15.48 C
783 11-09-2011 12:30:01 23.3 C 58 % 14.58 C
784 11-09-2011 12:42:01 22.8 C 61 % 14.89 C
785 11-09-2011 12:54:02 22 C 61 % 14.14 C
786 11-09-2011 13:06:19 20.2 C 71 % 14.78 C
787 11-09-2011 13:18:19 19 C 79 % 15.28 C
788 11-09-2011 13:30:02 18.3 C 81 % 14.98 C
789 11-09-2011 13:42:02 18.4 C 83 % 15.46 C
790 11-09-2011 13:54:02 18.2 C 84 % 15.45 C
791 11-09-2011 14:06:01 18.1 C 84 % 15.35 C
792 11-09-2011 14:18:01 18 C 85 % 15.44 C
793 11-09-2011 14:30:01 17.6 C 86 % 15.23 C
794 11-09-2011 14:42:01 17.4 C 87 % 15.21 C
795 11-09-2011 14:54:02 17.3 C 87 % 15.12 C
796 11-09-2011 15:06:02 17.2 C 87 % 15.02 C
797 11-09-2011 15:17:06 17.3 C 87 % 15.12 C
798 11-09-2011 15:29:06 17.2 C 88 % 15.2 C
799 11-09-2011 15:41:03 17.4 C 88 % 15.39 C
800 11-09-2011 15:53:01 17.4 C 87 % 15.21 C
Sensor: Nr:Datum:Temp:Feuchte:Taupunkt:
Aussen-T/F 801 11-09-2011 16:05:01 17.2 C 87 % 15.02 C
802 11-09-2011 16:17:02 17.3 C 87 % 15.12 C
803 11-09-2011 16:29:02 17 C 87 % 14.82 C
804 11-09-2011 16:41:01 16.5 C 87 % 14.33 C
805 11-09-2011 16:52:02 16 C 86 % 13.66 C
806 11-09-2011 17:04:01 15.8 C 87 % 13.64 C
807 11-09-2011 17:16:01 15.8 C 88 % 13.82 C
808 11-09-2011 17:28:02 15.7 C 88 % 13.72 C
809 11-09-2011 17:40:01 15.5 C 88 % 13.52 C
810 11-09-2011 17:52:02 15.4 C 88 % 13.42 C
811 11-09-2011 18:04:01 15.4 C 88 % 13.42 C
812 11-09-2011 18:15:01 15.4 C 88 % 13.42 C
813 11-09-2011 18:27:01 15.3 C 88 % 13.33 C
814 11-09-2011 18:39:02 15.1 C 88 % 13.13 C
815 11-09-2011 18:51:01 15.2 C 87 % 13.05 C
816 11-09-2011 19:03:02 15.2 C 87 % 13.05 C
817 11-09-2011 19:15:01 15 C 87 % 12.86 C
818 11-09-2011 19:27:01 14.7 C 88 % 12.73 C
819 11-09-2011 19:39:01 14.7 C 88 % 12.73 C
820 11-09-2011 19:50:01 14.6 C 88 % 12.64 C
821 11-09-2011 20:02:01 14.3 C 88 % 12.34 C
822 11-09-2011 20:14:01 13.9 C 88 % 11.95 C
823 11-09-2011 20:26:01 13.6 C 88 % 11.65 C
824 11-09-2011 20:38:01 13.6 C 89 % 11.82 C
825 11-09-2011 20:50:01 13.6 C 89 % 11.82 C
Sensor: Nr:Datum:Temp:Feuchte:Taupunkt:
Aussen-T/F 826 11-09-2011 21:02:01 13.6 C 89 % 11.82 C
827 11-09-2011 21:14:01 13.7 C 89 % 11.92 C
828 11-09-2011 21:25:02 13.6 C 89 % 11.82 C
829 11-09-2011 21:37:01 13.5 C 89 % 11.72 C
830 11-09-2011 21:49:02 13.1 C 89 % 11.33 C
831 11-09-2011 22:07:34 12.9 C 89 % 11.13 C
832 11-09-2011 22:19:34 12.7 C 89 % 10.94 C
833 11-09-2011 22:31:34 12.6 C 89 % 10.84 C
834 11-09-2011 22:43:34 12.5 C 89 % 10.74 C
835 11-09-2011 22:55:34 12.8 C 89 % 11.03 C
836 11-09-2011 23:07:34 12.8 C 90 % 11.2 C
837 11-09-2011 23:19:34 12.6 C 90 % 11 C
838 11-09-2011 23:31:34 12.1 C 89 % 10.34 C
839 11-09-2011 23:43:35 12.9 C 90 % 11.3 C
840 11-09-2011 23:55:35 13.1 C 90 % 11.5 C

Legende:
   Min
   Max


Maximal/Minimal-Werte vom 05.09.2011 - 11.09.2011

Sensor Min Max Avg
Temp
(Aussen-T/F)
10.8 °C
06-09-2011  07:26:01
30.9 °C
10-09-2011  16:18:01
17.58 °C
Feuchte
(Aussen-T/F)
23 %
05-09-2011  17:49:02
90 %
10-09-2011  05:42:48
65.65 %
Taupunkt
(Aussen-T/F)
1.03 C
05-09-2011  17:49:02
18.57 C
10-09-2011  18:06:02
10.5 C

Die Daten stammen von einer Davis Vantage Pro 2 Wetter-Station und werden unter Linux mit der Software wview2wettercgi und aufbereitet. Alle Angaben erfolgen ohne Gewähr für ihre Vollständigkeit oder Richtigkeit.
Kontakt: Rainer Krienke krienke@uni-koblenz.de . Meine Webseiten an der Uni Koblenz oder privat.
Version: $Revision: 0.78 $